Babson Park, FL (33827)

1:48 PM EDT on March 23, 2017 (GMT -0400)
Babson Park, FL | | Change Station

Elev 161 ft 27.83 °N, 81.52 °W | Updated 18 seconds ago

Partly Cloudy
Partly Cloudy
79.2 °F
Feels Like 81 °F
N
16.5
Wind Variable Wind from East
Gusts 17.5 mph

Today
High -- | Low -- °F
--% Chance of Precip.
Yesterday
High -- | Low -- °F
Precip. -- in
Pressure 30.24 in
Visibility 10.0 miles
Clouds Mostly Cloudy 3600 ft
Heat Index 81 °F
Dew Point 62 °F
Humidity 56%
Rainfall 0.00 in
Snow Depth Not available.
7:26 AM 7:39 PM
Waning Crescent, 22% visible
METAR KBOW 231745Z 06016G21KT 10SM VCSH BKN036 26/16 A3024 RMK CB N-NE
Pressure 30.24 in
Visibility 10.0 miles
Clouds Mostly Cloudy 3600 ft
Heat Index 81 °F
Dew Point 62 °F
Humidity 56%
Rainfall 0.00 in
Snow Depth Not available.
7:26 AM 7:39 PM
Waning Crescent, 22% visible
METAR KBOW 231745Z 06016G21KT 10SM VCSH BKN036 26/16 A3024 RMK CB N-NE

Get Severe Weather Alerts

Thanks for signing up!

Be on the lookout for a verification email in your inbox.

You'll start receiving the daily forecast at 8 AM.

×

10-Day Weather Forecast

Almanac

Astronomy

Mar. 23, 2017 Rise Set
Actual Time
Civil Twilight
Nautical Twilight
Astronomical Twilight
Moon
Length of Visible Light
Length of Day
Tomorrow will be .
, % of the Moon is Illuminated

Today's Extremes

State Highs State Lows

Community

WunderPhotos

Upload Photos

1,962,540 photos uploaded!

WunderBlog® & News

Nearby

Air Quality

  Air Quality AQ Index Pollutant
Not available.

Snow Depth

Station Depth Elevation

Earthquake Activity

City Distance Mag. Time & Date
Minimum magnitude displayed is 2.5.

Earthquake Activity

City Distance Mag. Time & Date
Minimum magnitude displayed is 2.5.

Coastal Water Temperatures

Place Temperature

Stations

Nearby Weather Stations

Station Location Temp. Windchill Dew Point Humidity Wind Precip. Elev Updated Type
                   

Watches & Warnings

There are currently no watches in effect.